Time;durP1;ratioP1;P1;durP2;ratioP2;P2;SDS_P1;SDS_P2;PMS_P1;PMS_P2;Temp;Humidity;BMP_temperature;BMP_pressure;BME280_temperature;BME280_humidity;BME280_pressure;Samples;Min_cycle;Max_cycle;Signal;HPM_P1;HPM_P2
2023/06/24 13:18:19;;;;;;;5.60;3.67;;;29.10;69.30;;;;;;5131389;27;20349;-67
2023/06/24 13:20:45;;;;;;;6.30;3.40;;;29.00;70.70;;;;;;5128742;28;20046;-68
2023/06/24 13:23:11;;;;;;;6.25;3.53;;;29.10;70.80;;;;;;5129514;28;20026;-68
2023/06/24 13:25:37;;;;;;;7.90;3.40;;;29.20;69.20;;;;;;5130021;28;20020;-68
2023/06/24 13:28:03;;;;;;;8.82;4.45;;;29.20;68.80;;;;;;5129425;28;20024;-67
2023/06/24 13:30:28;;;;;;;6.82;3.65;;;29.10;69.80;;;;;;5129710;28;20382;-68
2023/06/24 13:32:54;;;;;;;11.23;6.53;;;29.20;69.40;;;;;;5129955;28;20035;-70
2023/06/24 13:35:20;;;;;;;8.20;4.85;;;29.10;68.50;;;;;;5129019;28;20376;-67
2023/06/24 13:37:45;;;;;;;6.32;3.65;;;29.20;68.50;;;;;;5129636;28;20034;-67
2023/06/24 13:40:11;;;;;;;5.50;3.30;;;29.20;66.40;;;;;;5110485;28;20026;-68
2023/06/24 13:42:37;;;;;;;6.13;3.58;;;29.20;67.20;;;;;;5129204;28;20027;-67
2023/06/24 13:45:03;;;;;;;5.82;3.55;;;29.20;66.50;;;;;;5129636;28;20027;-70
2023/06/24 13:47:29;;;;;;;5.78;3.85;;;29.20;66.40;;;;;;5129570;28;20027;-68
2023/06/24 13:49:54;;;;;;;5.78;3.72;;;29.10;66.90;;;;;;5129027;28;20027;-66
2023/06/24 13:52:21;;;;;;;7.22;3.05;;;29.10;67.40;;;;;;5129144;28;20360;-68
2023/06/24 13:54:46;;;;;;;6.18;3.65;;;29.10;67.90;;;;;;5128990;28;20389;-66
2023/06/24 13:57:12;;;;;;;6.75;4.00;;;29.10;67.80;;;;;;5127878;28;20507;-66
2023/06/24 13:59:38;;;;;;;5.47;3.22;;;29.20;68.60;;;;;;5110741;28;20015;-65
2023/06/24 14:02:04;;;;;;;5.00;3.03;;;29.20;68.40;;;;;;5125258;28;20472;-69
2023/06/24 14:04:30;;;;;;;7.30;3.60;;;29.30;68.30;;;;;;5107664;28;20027;-67
2023/06/24 14:06:56;;;;;;;5.65;3.35;;;29.40;67.80;;;;;;5120383;28;20471;-66
2023/06/24 14:09:22;;;;;;;7.68;3.20;;;29.50;67.30;;;;;;5112533;28;20106;-68
2023/06/24 14:11:47;;;;;;;5.75;3.25;;;29.60;64.80;;;;;;5110038;28;20081;-66
2023/06/24 14:14:13;;;;;;;6.60;3.20;;;29.70;64.30;;;;;;5108152;28;20077;-70
2023/06/24 14:16:38;;;;;;;5.70;3.03;;;29.80;64.90;;;;;;5107662;28;20079;-67
2023/06/24 14:19:04;;;;;;;6.35;3.28;;;29.80;64.40;;;;;;5109056;28;20100;-67
2023/06/24 14:21:31;;;;;;;4.53;3.10;;;29.90;65.10;;;;;;5090197;28;20119;-67
2023/06/24 14:23:57;;;;;;;8.18;4.55;;;29.90;65.70;;;;;;5088843;28;20024;-68
2023/06/24 14:26:23;;;;;;;7.45;3.67;;;29.90;66.50;;;;;;5107852;28;20024;-67
2023/06/24 14:28:49;;;;;;;8.90;5.22;;;29.80;66.40;;;;;;5099940;28;20099;-66
2023/06/24 14:31:14;;;;;;;5.57;3.55;;;29.70;66.60;;;;;;5075969;28;20567;-66
2023/06/24 14:33:40;;;;;;;5.60;3.75;;;29.60;66.10;;;;;;5095064;28;20038;-66
2023/06/24 14:36:06;;;;;;;6.85;4.05;;;29.60;66.90;;;;;;5095193;28;20047;-68
2023/06/24 14:38:31;;;;;;;7.45;4.47;;;29.70;67.60;;;;;;5093812;28;20028;-71
2023/06/24 14:40:57;;;;;;;8.40;4.20;;;29.70;68.60;;;;;;5094029;28;20344;-69
2023/06/24 14:43:23;;;;;;;7.60;4.30;;;29.70;68.70;;;;;;5075523;28;20115;-69
2023/06/24 14:45:48;;;;;;;10.45;3.70;;;29.70;69.10;;;;;;5076128;28;20019;-71
2023/06/24 14:48:14;;;;;;;5.97;3.47;;;29.70;69.70;;;;;;5094648;28;20028;-70
2023/06/24 14:50:43;;;;;;;4.78;2.92;;;29.90;69.10;;;;;;5094818;28;20024;-70
2023/06/24 14:53:08;;;;;;;6.28;3.30;;;30.00;68.00;;;;;;5094004;28;20030;-72
2023/06/24 14:55:34;;;;;;;5.35;3.03;;;29.90;68.00;;;;;;5110470;28;20107;-69
2023/06/24 14:58:00;;;;;;;5.15;3.08;;;29.90;68.10;;;;;;5094697;28;20115;-70
2023/06/24 15:00:25;;;;;;;5.65;3.10;;;29.80;67.40;;;;;;5093880;28;20023;-69
2023/06/24 15:02:51;;;;;;;6.28;3.28;;;29.80;67.30;;;;;;5094633;28;20073;-68
2023/06/24 15:05:18;;;;;;;5.68;3.63;;;29.70;67.70;;;;;;5075982;28;20016;-71
2023/06/24 15:07:43;;;;;;;5.72;3.47;;;29.80;68.50;;;;;;5094115;28;20059;-70
2023/06/24 15:10:09;;;;;;;6.05;3.15;;;29.80;67.50;;;;;;5094090;28;20063;-71
2023/06/24 15:12:35;;;;;;;4.95;3.25;;;29.80;67.90;;;;;;5094159;28;20024;-70
2023/06/24 15:15:00;;;;;;;6.57;3.45;;;29.90;67.90;;;;;;5093680;28;20024;-70
2023/06/24 15:17:26;;;;;;;5.65;3.17;;;30.00;67.10;;;;;;5093811;28;20054;-69
2023/06/24 15:19:52;;;;;;;6.15;3.15;;;30.40;67.00;;;;;;5093599;28;20030;-70
2023/06/24 15:22:17;;;;;;;6.38;3.65;;;31.10;65.30;;;;;;5093967;28;20038;-70
2023/06/24 15:24:44;;;;;;;6.57;3.58;;;31.90;64.50;;;;;;5094308;28;20533;-71
2023/06/24 15:27:10;;;;;;;5.00;2.83;;;32.30;62.50;;;;;;5092910;28;20016;-69
2023/06/24 15:29:35;;;;;;;5.30;3.15;;;32.20;61.20;;;;;;5076383;28;20031;-71
2023/06/24 15:32:01;;;;;;;5.18;2.97;;;32.00;62.50;;;;;;5094153;28;20035;-70
2023/06/24 15:34:27;;;;;;;6.25;3.38;;;31.70;63.20;;;;;;5093327;28;20028;-69
2023/06/24 15:36:53;;;;;;;5.18;3.22;;;31.50;63.10;;;;;;5093917;28;20042;-70
2023/06/24 15:39:19;;;;;;;5.00;3.22;;;31.20;63.30;;;;;;5093436;28;20103;-69
2023/06/24 15:41:50;;;;;;;5.55;3.35;;;31.10;64.00;;;;;;5092777;28;20484;-69
2023/06/24 15:44:16;;;;;;;6.53;3.25;;;30.90;63.90;;;;;;5093785;28;20024;-72
2023/06/24 15:46:44;;;;;;;5.90;3.40;;;30.80;63.70;;;;;;5093803;28;20105;-69
2023/06/24 15:49:09;;;;;;;5.35;2.97;;;30.70;64.30;;;;;;5092894;28;20047;-71
2023/06/24 15:51:35;;;;;;;4.95;3.28;;;30.70;64.70;;;;;;5109751;28;20476;-68
2023/06/24 15:54:01;;;;;;;5.22;3.03;;;30.80;64.80;;;;;;5093219;28;20103;-69
2023/06/24 15:56:26;;;;;;;5.20;3.13;;;30.80;64.70;;;;;;5092288;28;20028;-68
2023/06/24 15:58:52;;;;;;;6.25;3.10;;;31.20;64.10;;;;;;5075285;28;20035;-68
2023/06/24 16:01:17;;;;;;;5.65;3.33;;;31.30;62.70;;;;;;5075143;28;20103;-68
2023/06/24 16:03:43;;;;;;;5.05;3.30;;;31.30;62.90;;;;;;5092711;28;20102;-70
2023/06/24 16:06:09;;;;;;;5.78;3.42;;;31.20;62.70;;;;;;5093213;28;20054;-67
2023/06/24 16:08:34;;;;;;;6.22;3.75;;;31.20;62.10;;;;;;5093565;28;20055;-68
2023/06/24 16:11:00;;;;;;;4.57;3.20;;;31.40;63.00;;;;;;5092848;28;20384;-69
2023/06/24 16:13:26;;;;;;;4.70;3.13;;;32.30;60.90;;;;;;5093133;28;20403;-67
2023/06/24 16:15:52;;;;;;;5.65;3.10;;;33.30;58.80;;;;;;5092855;28;20017;-67
2023/06/24 16:18:17;;;;;;;4.47;2.72;;;34.10;57.20;;;;;;5092791;28;20046;-67
2023/06/24 16:20:43;;;;;;;4.40;3.00;;;34.30;56.40;;;;;;5093223;28;20413;-68
2023/06/24 16:23:09;;;;;;;5.90;3.60;;;34.50;56.90;;;;;;5092485;28;20094;-69
2023/06/24 16:25:34;;;;;;;4.45;3.13;;;35.00;54.90;;;;;;5093019;28;20019;-68
2023/06/24 16:28:00;;;;;;;4.97;3.15;;;35.60;52.00;;;;;;5093026;28;20021;-69
2023/06/24 16:30:25;;;;;;;4.68;2.63;;;36.10;50.70;;;;;;5092125;28;20491;-68
2023/06/24 16:32:51;;;;;;;4.50;2.90;;;36.50;50.80;;;;;;5092954;28;20031;-69
2023/06/24 16:35:17;;;;;;;5.55;3.00;;;36.90;49.70;;;;;;5074602;28;20031;-72
2023/06/24 16:37:42;;;;;;;6.35;3.20;;;37.20;48.60;;;;;;5073843;28;20039;-71
2023/06/24 16:40:09;;;;;;;4.65;3.08;;;37.50;48.50;;;;;;5092953;28;20020;-72
2023/06/24 16:42:34;;;;;;;4.40;2.90;;;37.80;48.10;;;;;;5090427;28;20383;-73
2023/06/24 16:45:00;;;;;;;4.35;2.88;;;37.60;47.60;;;;;;5103439;28;20016;-71
2023/06/24 16:47:26;;;;;;;4.85;3.17;;;36.90;48.20;;;;;;5109736;28;20028;-73
2023/06/24 16:49:52;;;;;;;4.15;2.65;;;36.30;48.30;;;;;;5092259;28;20091;-74
2023/06/24 16:52:18;;;;;;;4.70;2.97;;;35.70;48.90;;;;;;5090408;28;20043;-67
2023/06/24 16:54:44;;;;;;;5.32;3.00;;;35.20;50.70;;;;;;5108025;28;20484;-66
2023/06/24 16:57:10;;;;;;;4.18;2.92;;;34.80;50.50;;;;;;5091148;28;20575;-68
2023/06/24 16:59:35;;;;;;;5.30;2.75;;;34.50;51.70;;;;;;5092771;28;20099;-72
2023/06/24 17:02:01;;;;;;;5.80;3.10;;;34.60;51.00;;;;;;5111766;28;20024;-67
2023/06/24 17:04:27;;;;;;;5.88;3.55;;;34.90;49.70;;;;;;5112325;28;20451;-67
2023/06/24 17:06:52;;;;;;;3.92;2.67;;;35.20;48.90;;;;;;5093424;28;20019;-68
2023/06/24 17:09:18;;;;;;;6.05;3.15;;;34.90;50.10;;;;;;5093552;28;20387;-67
2023/06/24 17:11:44;;;;;;;5.32;2.95;;;34.80;50.20;;;;;;5111893;28;20023;-70
2023/06/24 17:14:10;;;;;;;6.72;3.10;;;34.50;51.50;;;;;;5111617;28;20534;-71
2023/06/24 17:16:36;;;;;;;5.85;2.97;;;34.00;51.80;;;;;;5111729;28;20115;-71
2023/06/24 17:19:01;;;;;;;4.78;3.00;;;33.50;52.80;;;;;;5112639;28;20027;-69
2023/06/24 17:21:27;;;;;;;5.45;3.28;;;33.00;52.80;;;;;;5111144;28;20028;-69
2023/06/24 17:23:52;;;;;;;4.30;2.83;;;32.50;53.80;;;;;;5112504;28;20035;-68
2023/06/24 17:26:18;;;;;;;5.65;3.15;;;32.10;55.40;;;;;;5101245;28;20028;-67
2023/06/24 17:28:44;;;;;;;3.83;2.65;;;31.80;56.30;;;;;;5090928;28;20468;-74
2023/06/24 17:31:09;;;;;;;5.00;3.00;;;31.50;56.40;;;;;;5091132;28;20488;-69
2023/06/24 17:33:35;;;;;;;5.70;3.17;;;31.30;57.70;;;;;;5090407;28;20419;-70
2023/06/24 17:36:01;;;;;;;4.38;3.03;;;31.10;58.20;;;;;;5091544;28;20464;-68
2023/06/24 17:38:26;;;;;;;4.13;3.08;;;30.90;58.70;;;;;;5090857;28;20032;-69
2023/06/24 17:40:52;;;;;;;5.25;2.95;;;30.80;59.20;;;;;;5091066;28;20016;-67
2023/06/24 17:43:17;;;;;;;4.53;3.47;;;30.60;59.60;;;;;;5091411;28;20032;-69
2023/06/24 17:45:43;;;;;;;8.63;3.00;;;30.50;60.20;;;;;;5089360;28;20132;-67
2023/06/24 17:48:09;;;;;;;6.75;3.13;;;30.30;60.60;;;;;;5091850;28;20031;-68
2023/06/24 17:50:34;;;;;;;7.43;2.95;;;30.10;61.50;;;;;;5092173;28;20028;-71
2023/06/24 17:53:00;;;;;;;4.18;2.85;;;29.90;62.20;;;;;;5091737;28;20095;-68
2023/06/24 17:55:28;;;;;;;5.22;3.30;;;29.80;63.20;;;;;;5091701;28;20024;-67
2023/06/24 17:57:54;;;;;;;5.75;3.10;;;29.60;63.80;;;;;;5092082;28;20086;-68
2023/06/24 18:00:19;;;;;;;6.18;3.28;;;29.50;64.50;;;;;;5091242;28;20062;-68
2023/06/24 18:02:45;;;;;;;4.80;3.13;;;29.40;64.60;;;;;;5091598;28;20464;-68
2023/06/24 18:05:11;;;;;;;6.25;3.70;;;29.30;66.00;;;;;;5095434;28;20024;-70
2023/06/24 18:07:37;;;;;;;6.05;3.40;;;29.20;66.40;;;;;;5095497;28;20046;-67
2023/06/24 18:10:03;;;;;;;5.80;3.45;;;29.20;66.90;;;;;;5095819;28;20070;-67
2023/06/24 18:12:29;;;;;;;5.95;3.30;;;29.20;67.80;;;;;;5095528;28;20074;-67
2023/06/24 18:14:55;;;;;;;5.20;3.20;;;29.20;68.20;;;;;;5094793;28;20020;-68
2023/06/24 18:17:21;;;;;;;5.60;3.33;;;29.20;68.60;;;;;;5095268;28;20479;-71
2023/06/24 18:19:48;;;;;;;7.18;3.67;;;29.20;69.70;;;;;;5095559;28;20399;-69
2023/06/24 18:22:13;;;;;;;5.15;3.08;;;29.30;70.90;;;;;;5094715;28;20081;-68
2023/06/24 18:24:39;;;;;;;5.10;3.22;;;29.30;70.40;;;;;;5095454;28;20422;-66
2023/06/24 18:27:05;;;;;;;6.28;3.40;;;29.40;69.60;;;;;;5095482;28;20472;-66
2023/06/24 18:29:31;;;;;;;4.70;3.03;;;29.40;68.50;;;;;;5094835;28;20364;-73
2023/06/24 18:31:56;;;;;;;5.28;3.30;;;29.50;69.70;;;;;;5095598;28;20061;-75
2023/06/24 18:34:22;;;;;;;6.32;3.33;;;29.50;69.40;;;;;;5095225;28;20468;-74
2023/06/24 18:36:48;;;;;;;5.85;3.45;;;29.40;69.10;;;;;;5094681;28;20068;-72
2023/06/24 18:39:13;;;;;;;7.28;3.47;;;29.40;69.20;;;;;;5095219;28;20024;-72
2023/06/24 18:41:39;;;;;;;5.70;3.47;;;29.40;70.30;;;;;;5095327;28;20024;-69
2023/06/24 18:44:04;;;;;;;7.05;3.47;;;29.70;71.80;;;;;;5094480;28;20073;-68
2023/06/24 18:46:31;;;;;;;4.90;3.17;;;29.80;71.90;;;;;;5094887;28;20017;-68
2023/06/24 18:48:59;;;;;;;6.90;3.22;;;29.70;72.60;;;;;;5094552;28;20051;-73
2023/06/24 18:51:25;;;;;;;6.65;3.72;;;29.50;72.90;;;;;;5094707;28;20020;-68
2023/06/24 18:53:50;;;;;;;6.63;4.05;;;29.30;73.30;;;;;;5095346;28;20099;-71
2023/06/24 18:56:16;;;;;;;5.00;3.65;;;29.10;73.90;;;;;;5093940;28;20047;-69
2023/06/24 18:58:42;;;;;;;7.43;4.38;;;29.00;74.30;;;;;;5094986;28;20059;-68
2023/06/24 19:01:07;;;;;;;6.65;4.15;;;28.80;74.50;;;;;;5094772;28;20020;-67
2023/06/24 19:03:33;;;;;;;6.68;3.83;;;28.70;75.60;;;;;;5094338;28;20107;-70
2023/06/24 19:05:59;;;;;;;6.80;3.97;;;28.60;76.90;;;;;;5094779;28;20021;-70
2023/06/24 19:08:24;;;;;;;5.25;3.80;;;28.40;78.00;;;;;;5094447;28;20099;-74
2023/06/24 19:10:50;;;;;;;7.13;4.10;;;28.30;78.80;;;;;;5094009;28;20515;-72
2023/06/24 19:13:15;;;;;;;5.53;4.03;;;28.10;79.40;;;;;;5076276;28;20114;-71
2023/06/24 19:15:41;;;;;;;6.45;4.20;;;28.00;80.20;;;;;;5094402;28;20028;-68
2023/06/24 19:18:07;;;;;;;7.38;4.78;;;27.90;80.50;;;;;;5093743;28;20048;-71
2023/06/24 19:20:32;;;;;;;6.07;3.92;;;27.80;80.80;;;;;;5094734;28;20516;-73
2023/06/24 19:22:58;;;;;;;6.47;3.85;;;27.70;81.30;;;;;;5094347;28;20028;-68
2023/06/24 19:25:24;;;;;;;7.20;3.85;;;27.50;81.70;;;;;;5093418;28;20376;-70
2023/06/24 19:27:49;;;;;;;6.78;3.95;;;27.30;82.00;;;;;;5094379;28;20028;-68
2023/06/24 19:30:15;;;;;;;7.05;4.05;;;27.10;82.90;;;;;;5093919;28;20012;-73
2023/06/24 19:32:43;;;;;;;6.78;3.92;;;26.90;83.10;;;;;;5093634;28;20060;-71
2023/06/24 19:35:08;;;;;;;5.35;3.63;;;26.70;84.30;;;;;;5093560;28;20460;-68
2023/06/24 19:37:34;;;;;;;8.07;5.13;;;26.50;85.30;;;;;;5094413;28;20085;-69
2023/06/24 19:40:02;;;;;;;8.98;4.95;;;26.40;85.80;;;;;;5093279;28;20106;-69
2023/06/24 19:42:28;;;;;;;7.07;4.30;;;26.30;86.50;;;;;;5093439;28;20054;-69
2023/06/24 19:44:53;;;;;;;6.53;3.75;;;26.20;87.10;;;;;;5094011;28;20020;-71
2023/06/24 19:47:19;;;;;;;5.50;3.78;;;26.10;87.50;;;;;;5093036;28;20070;-71
2023/06/24 19:49:49;;;;;;;7.10;4.47;;;26.00;87.60;;;;;;5094122;28;20025;-71
2023/06/24 19:52:15;;;;;;;6.00;3.95;;;25.90;88.20;;;;;;5093231;28;20030;-71
2023/06/24 19:54:40;;;;;;;6.72;4.18;;;25.70;89.20;;;;;;5093866;28;20024;-71
2023/06/24 19:57:06;;;;;;;8.23;4.60;;;25.50;90.20;;;;;;5075324;28;20089;-71
2023/06/24 19:59:32;;;;;;;6.53;4.35;;;25.30;90.90;;;;;;5093017;28;20059;-71
2023/06/24 20:01:57;;;;;;;9.02;5.93;;;25.20;91.50;;;;;;5093478;28;20035;-70
2023/06/24 20:04:23;;;;;;;7.43;4.78;;;25.00;91.90;;;;;;5093465;28;20099;-70
2023/06/24 20:06:48;;;;;;;10.57;5.05;;;24.90;92.40;;;;;;5093065;28;20061;-71
2023/06/24 20:09:14;;;;;;;6.93;4.60;;;24.90;93.20;;;;;;5093386;28;20479;-68
2023/06/24 20:11:40;;;;;;;35.92;21.75;;;24.90;93.80;;;;;;5093550;28;20024;-70
2023/06/24 20:14:05;;;;;;;44.58;31.02;;;25.00;94.30;;;;;;5092633;28;20028;-70
2023/06/24 20:16:32;;;;;;;13.48;9.07;;;25.00;94.60;;;;;;5092814;28;20369;-70
2023/06/24 20:18:57;;;;;;;45.97;27.33;;;25.00;94.80;;;;;;5093069;28;20055;-71
2023/06/24 20:21:23;;;;;;;12.55;7.57;;;25.00;95.00;;;;;;5092592;28;20055;-70
2023/06/24 20:23:48;;;;;;;49.78;32.80;;;24.90;95.30;;;;;;5093377;28;20472;-70
2023/06/24 20:26:14;;;;;;;21.92;14.23;;;24.80;95.70;;;;;;5092786;28;20020;-71
2023/06/24 20:28:40;;;;;;;10.27;6.88;;;24.80;96.10;;;;;;5092781;28;20407;-71
2023/06/24 20:31:06;;;;;;;32.05;19.92;;;24.60;96.50;;;;;;5093260;28;20464;-71
2023/06/24 20:33:32;;;;;;;33.13;21.20;;;24.50;97.00;;;;;;5093493;28;20035;-71
2023/06/24 20:35:58;;;;;;;9.88;6.30;;;24.40;97.50;;;;;;5092378;28;20046;-70
2023/06/24 20:38:24;;;;;;;12.85;7.25;;;24.30;98.10;;;;;;5092771;28;20085;-70
2023/06/24 20:40:51;;;;;;;88.63;51.13;;;24.20;98.60;;;;;;5093149;28;20024;-71
2023/06/24 20:43:22;;;;;;;23.92;11.85;;;24.10;99.20;;;;;;5107789;28;20023;-70
2023/06/24 20:45:51;;;;;;;11.52;6.90;;;24.00;99.90;;;;;;5092811;28;20026;-70
2023/06/24 20:48:17;;;;;;;28.85;18.42;;;23.80;99.90;;;;;;5092855;28;20024;-71
2023/06/24 20:50:43;;;;;;;16.42;9.43;;;23.80;99.90;;;;;;5092339;28;20028;-71
2023/06/24 20:53:08;;;;;;;16.30;9.05;;;23.60;99.90;;;;;;5092643;28;20024;-70
2023/06/24 20:55:34;;;;;;;10.68;6.18;;;23.40;99.90;;;;;;5091678;28;20597;-70
2023/06/24 20:58:00;;;;;;;27.23;15.65;;;23.20;99.90;;;;;;5092978;28;20488;-70
2023/06/24 21:00:26;;;;;;;17.33;10.27;;;23.20;99.90;;;;;;5074673;28;20012;-70
2023/06/24 21:02:52;;;;;;;21.17;13.15;;;23.10;99.90;;;;;;5092234;28;20389;-70
2023/06/24 21:05:18;;;;;;;23.80;13.98;;;23.00;99.90;;;;;;5092475;28;20024;-69
2023/06/24 21:07:44;;;;;;;77.25;43.17;;;22.90;99.90;;;;;;5092439;28;20086;-70
2023/06/24 21:10:11;;;;;;;19.17;10.70;;;22.90;99.90;;;;;;5091767;28;20533;-70
2023/06/24 21:12:36;;;;;;;9.00;6.07;;;22.80;99.90;;;;;;5092522;28;20024;-70
2023/06/24 21:15:02;;;;;;;8.95;5.47;;;22.80;99.90;;;;;;5092627;28;20387;-70
2023/06/24 21:17:28;;;;;;;8.20;5.40;;;22.80;99.90;;;;;;5090968;28;20241;-70
2023/06/24 21:19:54;;;;;;;11.13;5.80;;;22.70;99.90;;;;;;5093126;28;20024;-70
2023/06/24 21:22:20;;;;;;;7.68;5.25;;;22.60;99.90;;;;;;5094392;28;20421;-67
2023/06/24 21:24:45;;;;;;;9.43;5.97;;;22.50;99.90;;;;;;5091854;28;20012;-68
2023/06/24 21:27:11;;;;;;;7.78;5.40;;;22.40;99.90;;;;;;5091434;28;20050;-69
